Time;durP1;ratioP1;P1;durP2;ratioP2;P2;SDS_P1;SDS_P2;PMS_P1;PMS_P2;Temp;Humidity;BMP_temperature;BMP_pressure;BME280_temperature;BME280_humidity;BME280_pressure;Samples;Min_cycle;Max_cycle;Signal;HPM_P1;HPM_P2
2023/07/24 00:00:42;;;;;;;5.57;3.40;;;;;;;28.23;42.63;99949.63;5091846;28;20059;-66
2023/07/24 00:03:12;;;;;;;5.45;3.22;;;;;;;28.22;42.93;99946.03;5091721;28;20056;-66
2023/07/24 00:05:41;;;;;;;6.80;3.22;;;;;;;28.23;43.28;99949.63;5091676;28;20052;-66
2023/07/24 00:08:09;;;;;;;4.82;3.00;;;;;;;28.21;43.01;99949.00;5091626;28;20048;-66
2023/07/24 00:10:37;;;;;;;4.65;2.95;;;;;;;28.21;42.87;99943.50;5091348;28;20084;-66
2023/07/24 00:13:06;;;;;;;4.80;3.20;;;;;;;28.20;43.40;99936.34;5091542;28;20485;-66
2023/07/24 00:15:34;;;;;;;5.78;3.10;;;;;;;28.19;43.52;99934.66;5091891;28;20098;-66
2023/07/24 00:18:02;;;;;;;4.38;3.17;;;;;;;28.18;43.23;99933.81;5091571;28;20055;-66
2023/07/24 00:20:32;;;;;;;4.57;3.00;;;;;;;28.17;42.92;99934.00;5091381;28;20048;-66
2023/07/24 00:23:00;;;;;;;4.85;3.13;;;;;;;28.17;43.27;99931.28;5091343;28;20083;-68
2023/07/24 00:25:29;;;;;;;4.80;3.10;;;;;;;28.15;43.11;99936.13;5091448;28;20076;-66
2023/07/24 00:27:57;;;;;;;4.90;3.30;;;;;;;28.15;43.37;99938.88;5091388;28;20052;-66
2023/07/24 00:30:25;;;;;;;4.75;3.20;;;;;;;28.14;43.73;99932.53;5091416;28;20448;-66
2023/07/24 00:32:54;;;;;;;5.93;2.90;;;;;;;28.13;43.57;99924.53;5091501;28;20052;-66
2023/07/24 00:35:22;;;;;;;5.38;3.65;;;;;;;28.12;43.26;99929.19;5091374;28;20047;-66
2023/07/24 00:37:52;;;;;;;5.07;3.15;;;;;;;28.12;43.68;99920.97;5091583;28;20048;-66
2023/07/24 00:40:20;;;;;;;4.88;3.38;;;;;;;28.11;43.81;99911.06;5092197;28;20048;-66
2023/07/24 00:42:49;;;;;;;6.80;3.47;;;;;;;28.07;43.87;99909.78;5091318;28;20044;-66
2023/07/24 00:45:20;;;;;;;4.30;3.05;;;;;;;28.09;43.73;99901.38;5091248;28;20089;-66
2023/07/24 00:47:49;;;;;;;4.95;3.20;;;;;;;28.08;44.19;99900.50;5091198;28;20477;-66
2023/07/24 00:50:18;;;;;;;4.97;3.20;;;;;;;28.07;44.33;99897.97;5091341;28;20048;-66
2023/07/24 00:52:47;;;;;;;5.30;3.28;;;;;;;28.06;43.82;99904.50;5091108;28;20588;-67
2023/07/24 00:55:17;;;;;;;5.10;3.03;;;;;;;28.06;44.23;99896.28;5091215;28;20409;-66
2023/07/24 00:57:45;;;;;;;4.63;3.00;;;;;;;28.05;44.25;99894.59;5091095;28;20040;-66
2023/07/24 01:00:14;;;;;;;4.93;3.40;;;;;;;28.04;43.90;99892.94;5091077;28;20481;-66
2023/07/24 01:02:43;;;;;;;5.47;3.20;;;;;;;28.01;44.21;99888.72;5091410;28;20091;-65
2023/07/24 01:05:14;;;;;;;4.65;3.45;;;;;;;28.01;44.20;99885.97;5090999;28;20055;-67
2023/07/24 01:07:42;;;;;;;5.15;3.15;;;;;;;28.02;44.52;99890.41;5091113;28;20044;-66
2023/07/24 01:10:11;;;;;;;5.18;3.33;;;;;;;28.01;44.41;99887.88;5090692;28;20490;-66
2023/07/24 01:12:50;;;;;;;4.57;3.10;;;;;;;28.00;44.16;99886.19;5094714;28;20102;-66
2023/07/24 01:15:25;;;;;;;4.47;3.30;;;;;;;27.99;44.40;99881.75;5095068;28;20044;-66
2023/07/24 01:17:59;;;;;;;4.78;3.13;;;;;;;27.98;44.47;99889.13;5094826;28;20071;-66
2023/07/24 01:20:31;;;;;;;4.75;3.35;;;;;;;27.98;44.22;99888.28;5094481;28;20048;-66
2023/07/24 01:23:22;;;;;;;5.13;3.42;;;;;;;27.97;44.39;99886.59;5094492;28;20055;-66
2023/07/24 01:26:03;;;;;;;4.90;3.35;;;;;;;27.94;44.92;99883.25;5094632;28;20100;-66
2023/07/24 01:28:31;;;;;;;4.65;3.40;;;;;;;27.95;45.01;99889.56;5094695;28;20498;-66
2023/07/24 01:30:59;;;;;;;5.90;3.40;;;;;;;27.93;45.16;99884.31;5094396;28;20109;-66
2023/07/24 01:33:28;;;;;;;4.70;3.22;;;;;;;27.93;44.90;99891.69;5094389;28;20484;-66
2023/07/24 01:35:59;;;;;;;6.35;3.33;;;;;;;27.91;45.28;99883.69;5094179;28;20084;-65
2023/07/24 01:38:28;;;;;;;5.43;3.40;;;;;;;27.91;45.20;99885.59;5094444;28;20435;-66
2023/07/24 01:40:57;;;;;;;5.80;3.30;;;;;;;27.91;45.54;99885.59;5094364;28;20040;-65
2023/07/24 01:43:29;;;;;;;5.05;3.45;;;;;;;27.89;45.23;99880.31;5094317;28;20044;-66
2023/07/24 01:45:57;;;;;;;5.03;3.33;;;;;;;27.87;45.29;99876.09;5094094;28;20051;-66
2023/07/24 01:48:25;;;;;;;5.22;3.35;;;;;;;27.87;45.26;99876.94;5094051;28;20059;-66
2023/07/24 01:50:53;;;;;;;4.75;3.33;;;;;;;27.87;45.39;99876.09;5094260;28;20386;-66
2023/07/24 01:53:23;;;;;;;4.57;3.40;;;;;;;27.84;45.67;99869.16;5093878;28;20542;-66
2023/07/24 01:55:51;;;;;;;4.68;3.17;;;;;;;27.84;45.15;99880.09;5094014;28;20095;-67
2023/07/24 01:58:19;;;;;;;5.20;3.20;;;;;;;27.84;45.41;99876.53;5093882;28;20101;-66
2023/07/24 02:00:49;;;;;;;5.75;3.30;;;;;;;27.84;45.28;99882.00;5093769;28;20529;-66
2023/07/24 02:03:17;;;;;;;4.65;3.20;;;;;;;27.83;45.65;99875.69;5093987;28;20147;-66
2023/07/24 02:05:50;;;;;;;5.30;3.58;;;;;;;27.82;45.81;99879.47;5093755;28;20127;-66
2023/07/24 02:08:18;;;;;;;;;;;;;;;27.81;45.87;99882.44;5094195;28;20044;-66
2023/07/24 02:10:49;;;;;;;5.63;3.38;;;;;;;27.81;45.43;99876.97;5093405;28;19920;-66
2023/07/24 02:13:18;;;;;;;4.82;3.10;;;;;;;27.80;45.76;99869.81;5093474;28;20040;-66
2023/07/24 02:15:46;;;;;;;4.93;3.20;;;;;;;27.78;45.75;99872.72;5093358;28;20055;-65
2023/07/24 02:18:15;;;;;;;5.03;3.40;;;;;;;27.77;45.52;99868.31;5093576;28;20120;-66
2023/07/24 02:20:49;;;;;;;5.57;3.58;;;;;;;27.75;45.67;99873.16;5093695;28;20044;-65
2023/07/24 02:23:18;;;;;;;5.68;3.50;;;;;;;27.75;46.06;99883.28;5093189;28;20040;-67
2023/07/24 02:25:46;;;;;;;5.22;3.38;;;;;;;27.75;45.65;99886.88;5093149;28;20098;-66
2023/07/24 02:28:14;;;;;;;4.95;3.38;;;;;;;27.74;45.93;99887.91;5093208;28;20040;-66
2023/07/24 02:30:42;;;;;;;6.43;3.88;;;;;;;27.74;46.12;99881.59;5093603;28;20046;-66
2023/07/24 02:33:11;;;;;;;4.88;3.58;;;;;;;27.73;46.13;99885.41;5093173;28;20109;-66
2023/07/24 02:35:41;;;;;;;5.00;3.63;;;;;;;27.72;46.20;99883.72;5093034;28;20485;-66
2023/07/24 02:38:09;;;;;;;5.55;3.60;;;;;;;27.71;45.79;99885.63;5093011;28;20063;-67
2023/07/24 02:40:38;;;;;;;5.07;3.85;;;;;;;27.72;45.76;99881.81;5093395;28;20043;-65
2023/07/24 02:43:06;;;;;;;5.97;3.97;;;;;;;27.66;46.22;99877.19;5093112;28;20048;-65
2023/07/24 02:45:35;;;;;;;5.22;3.28;;;;;;;27.70;46.18;99881.19;5092921;28;20048;-65
2023/07/24 02:48:06;;;;;;;5.90;3.90;;;;;;;27.70;45.75;99875.72;5092830;28;20113;-67
2023/07/24 02:50:35;;;;;;;5.68;3.70;;;;;;;27.69;46.06;99879.47;5092945;28;20052;-66
2023/07/24 02:53:05;;;;;;;5.80;3.78;;;;;;;27.68;46.21;99875.06;5093057;28;20063;-67
2023/07/24 02:55:33;;;;;;;5.57;3.80;;;;;;;27.66;46.10;99880.75;5092708;28;20044;-64
2023/07/24 02:58:01;;;;;;;5.38;3.70;;;;;;;27.66;46.30;99886.22;5092866;28;20059;-66
2023/07/24 03:00:30;;;;;;;5.20;3.60;;;;;;;27.66;46.08;99877.19;5092763;28;20055;-66
2023/07/24 03:02:58;;;;;;;6.10;3.83;;;;;;;27.66;45.98;99879.91;5092487;28;20047;-64
2023/07/24 03:05:26;;;;;;;5.55;3.92;;;;;;;27.64;46.56;99877.34;5092387;28;20495;-65
2023/07/24 03:07:54;;;;;;;5.10;3.50;;;;;;;27.63;46.06;99875.69;5092283;28;20143;-66
2023/07/24 03:10:24;;;;;;;4.53;3.30;;;;;;;27.62;46.45;99875.91;5092333;28;20052;-65
2023/07/24 03:12:53;;;;;;;5.43;3.55;;;;;;;27.62;46.12;99875.91;5092832;28;20040;-66
2023/07/24 03:15:21;;;;;;;5.85;3.95;;;;;;;27.62;46.43;99878.63;5092607;28;20044;-66
2023/07/24 03:17:49;;;;;;;4.57;3.40;;;;;;;27.61;46.46;99879.69;5092509;28;20048;-65
2023/07/24 03:20:19;;;;;;;4.70;3.28;;;;;;;27.61;46.60;99874.22;5092242;28;20040;-65
2023/07/24 03:22:48;;;;;;;5.70;3.63;;;;;;;27.59;46.61;99879.03;5092041;28;20568;-66
2023/07/24 03:25:16;;;;;;;6.03;3.55;;;;;;;27.58;46.22;99866.41;5092084;28;20489;-65
2023/07/24 03:27:46;;;;;;;5.30;3.60;;;;;;;27.56;46.38;99863.88;5092260;28;20447;-65
2023/07/24 03:30:14;;;;;;;4.95;3.63;;;;;;;27.55;46.49;99862.19;5092173;28;20052;-66
2023/07/24 03:32:42;;;;;;;5.72;3.30;;;;;;;27.55;46.94;99862.19;5091790;28;20056;-65
2023/07/24 03:35:10;;;;;;;7.80;3.70;;;;;;;27.54;46.83;99859.66;5091480;28;20047;-67
2023/07/24 03:37:39;;;;;;;5.38;3.67;;;;;;;27.53;46.88;99860.72;5092144;28;20048;-66
2023/07/24 03:40:08;;;;;;;5.40;3.80;;;;;;;27.52;46.36;99861.78;5091822;28;20044;-66
2023/07/24 03:42:36;;;;;;;5.13;3.55;;;;;;;27.52;47.16;99862.63;5091867;28;20047;-65
2023/07/24 03:45:08;;;;;;;5.97;4.00;;;;;;;27.52;47.01;99867.25;5091953;28;20135;-66
2023/07/24 03:47:36;;;;;;;6.05;3.85;;;;;;;27.50;46.64;99867.44;5092029;28;20118;-64
2023/07/24 03:50:08;;;;;;;4.93;3.50;;;;;;;27.51;46.98;99865.59;5092081;28;20044;-66
2023/07/24 03:52:36;;;;;;;7.00;3.83;;;;;;;27.50;46.78;99858.38;5091793;28;20044;-66
2023/07/24 03:55:05;;;;;;;4.93;3.58;;;;;;;27.51;46.77;99860.94;5091619;28;20059;-65
2023/07/24 03:57:33;;;;;;;6.45;3.65;;;;;;;27.50;46.77;99861.97;5091523;28;20047;-66
2023/07/24 04:00:02;;;;;;;5.18;3.40;;;;;;;27.44;46.84;99856.50;5091652;28;20046;-66
2023/07/24 04:02:32;;;;;;;5.20;3.58;;;;;;;27.49;46.90;99864.94;5091840;28;20453;-66
2023/07/24 04:05:00;;;;;;;5.55;3.80;;;;;;;27.49;47.00;99867.66;5092179;28;20066;-65
2023/07/24 04:07:28;;;;;;;4.70;3.40;;;;;;;27.49;46.93;99856.72;5091515;28;20052;-65
2023/07/24 04:09:56;;;;;;;5.72;3.47;;;;;;;27.48;46.85;99866.81;5091446;28;20059;-65
2023/07/24 04:12:25;;;;;;;5.13;3.58;;;;;;;27.47;46.91;99856.09;5091463;28;20090;-65
2023/07/24 04:14:54;;;;;;;4.82;3.60;;;;;;;27.46;47.48;99857.13;5091437;28;20048;-65
2023/07/24 04:17:23;;;;;;;5.40;4.05;;;;;;;27.47;47.48;99856.09;5091660;28;20109;-65
2023/07/24 04:19:53;;;;;;;6.70;3.80;;;;;;;27.45;47.51;99858.19;5091728;28;20093;-65
2023/07/24 04:22:21;;;;;;;5.25;3.60;;;;;;;27.45;47.12;99863.69;5091785;28;20397;-65
2023/07/24 04:24:52;;;;;;;5.22;3.55;;;;;;;27.46;47.35;99860.72;5091540;28;20044;-67
2023/07/24 04:27:20;;;;;;;5.88;3.85;;;;;;;27.45;47.22;99859.03;5091704;28;20048;-65
2023/07/24 04:29:49;;;;;;;5.15;3.58;;;;;;;27.45;47.06;99858.19;5091978;28;20055;-65
2023/07/24 04:32:17;;;;;;;5.65;3.80;;;;;;;27.44;47.32;99851.03;5092238;28;20051;-64
2023/07/24 04:34:46;;;;;;;5.45;3.80;;;;;;;27.43;47.06;99850.19;5092802;28;20052;-65
2023/07/24 04:37:15;;;;;;;5.70;3.70;;;;;;;27.43;47.04;99846.63;5097319;28;20059;-64
2023/07/24 04:39:44;;;;;;;5.00;3.80;;;;;;;27.43;47.36;99846.63;5094195;28;20044;-65
2023/07/24 04:42:12;;;;;;;5.60;3.90;;;;;;;27.42;47.30;99850.41;5091356;28;20044;-65
2023/07/24 04:44:40;;;;;;;5.07;3.47;;;;;;;27.41;47.94;99849.56;5092161;28;20094;-66
2023/07/24 04:47:08;;;;;;;5.28;3.78;;;;;;;27.39;47.84;99852.50;5095254;28;20616;-64
2023/07/24 04:49:37;;;;;;;6.00;3.75;;;;;;;27.41;47.47;99848.69;5095149;28;20088;-64
2023/07/24 04:52:06;;;;;;;5.55;3.55;;;;;;;27.41;47.48;99854.19;5095135;28;20044;-64
2023/07/24 04:54:38;;;;;;;5.45;3.60;;;;;;;27.40;47.55;99858.81;5095049;28;20056;-65
2023/07/24 04:57:07;;;;;;;8.23;3.70;;;;;;;27.39;47.97;99860.72;5095333;28;20052;-64
2023/07/24 04:59:35;;;;;;;5.20;3.75;;;;;;;27.38;47.63;99864.50;5095209;28;20561;-66
2023/07/24 05:02:03;;;;;;;5.65;3.88;;;;;;;27.39;47.38;99877.16;5094792;28;20050;-65
2023/07/24 05:04:32;;;;;;;5.45;3.55;;;;;;;27.39;47.36;99873.56;5094914;28;20454;-65
2023/07/24 05:07:01;;;;;;;5.72;3.80;;;;;;;27.39;47.58;99871.66;5094779;28;20105;-65
2023/07/24 05:09:29;;;;;;;5.40;3.78;;;;;;;27.37;48.21;99871.03;5094840;28;20113;-65
2023/07/24 05:11:58;;;;;;;6.10;4.03;;;;;;;27.37;47.52;99868.31;5094886;28;20072;-67
2023/07/24 05:14:27;;;;;;;5.60;3.35;;;;;;;27.39;47.96;99868.09;5094565;28;20109;-66
2023/07/24 05:16:55;;;;;;;5.43;3.90;;;;;;;27.38;48.01;99869.97;5094717;28;20062;-66
2023/07/24 05:19:23;;;;;;;6.13;3.70;;;;;;;27.38;47.51;99866.41;5094640;28;20080;-65
2023/07/24 05:21:52;;;;;;;5.50;3.70;;;;;;;27.38;47.91;99860.94;5094557;28;20051;-65
2023/07/24 05:24:20;;;;;;;5.18;3.40;;;;;;;27.38;47.66;99869.16;5094277;28;20486;-65
2023/07/24 05:26:48;;;;;;;5.50;3.75;;;;;;;27.37;48.29;99875.69;5094343;28;20137;-66
2023/07/24 05:29:18;;;;;;;6.13;3.97;;;;;;;27.35;48.19;99869.56;5094276;28;20508;-65
2023/07/24 05:31:46;;;;;;;5.88;4.00;;;;;;;27.36;48.26;99874.00;5094556;28;20448;-67
2023/07/24 05:34:15;;;;;;;6.18;3.95;;;;;;;27.35;48.04;99856.72;5094270;28;20405;-65
2023/07/24 05:36:43;;;;;;;6.72;3.90;;;;;;;27.35;47.71;99862.19;5094198;28;20641;-66
2023/07/24 05:39:11;;;;;;;6.10;4.00;;;;;;;27.37;47.84;99875.69;5094413;28;20120;-66
2023/07/24 05:41:39;;;;;;;4.32;3.30;;;;;;;27.35;47.83;99873.16;5093971;28;20127;-66
2023/07/24 05:44:08;;;;;;;5.82;4.25;;;;;;;27.35;48.19;99856.72;5094343;28;20079;-66
2023/07/24 05:46:37;;;;;;;5.97;4.30;;;;;;;27.36;48.30;99868.53;5093952;28;20080;-65
2023/07/24 05:49:06;;;;;;;5.07;3.70;;;;;;;27.35;48.29;99873.16;5093771;28;20088;-66
2023/07/24 05:51:34;;;;;;;6.05;4.20;;;;;;;27.34;48.50;99863.25;5093084;28;20059;-66
2023/07/24 05:54:02;;;;;;;5.80;3.95;;;;;;;27.33;48.59;99864.31;5093703;28;20056;-67
2023/07/24 05:56:30;;;;;;;6.03;4.10;;;;;;;27.34;48.32;99855.03;5092912;28;20140;-66
2023/07/24 05:58:59;;;;;;;6.18;3.95;;;;;;;27.34;48.24;99852.31;5093811;28;20378;-67
2023/07/24 06:01:27;;;;;;;5.30;3.95;;;;;;;27.34;48.19;99848.72;5093685;28;20151;-67
2023/07/24 06:03:57;;;;;;;5.47;3.78;;;;;;;27.33;48.81;99858.84;5093714;28;20101;-67
2023/07/24 06:06:25;;;;;;;5.85;4.10;;;;;;;27.34;48.61;99849.56;5093873;28;20055;-66
2023/07/24 06:08:56;;;;;;;6.57;4.50;;;;;;;27.33;49.16;99853.34;5093675;28;20105;-66
2023/07/24 06:11:26;;;;;;;5.55;3.85;;;;;;;27.34;49.11;99844.09;5093675;28;20452;-67
2023/07/24 06:13:54;;;;;;;6.07;4.32;;;;;;;27.34;49.38;99844.09;5093567;28;20055;-66
2023/07/24 06:16:22;;;;;;;6.00;4.07;;;;;;;27.32;48.99;99840.72;5093488;28;20473;-67
2023/07/24 06:18:51;;;;;;;5.30;4.13;;;;;;;27.33;48.96;99845.16;5093471;28;20044;-66
2023/07/24 06:21:20;;;;;;;5.80;4.32;;;;;;;27.31;48.99;99836.31;5093613;28;20083;-67
2023/07/24 06:23:48;;;;;;;5.53;4.05;;;;;;;27.32;48.80;99840.72;5093179;28;20144;-66
2023/07/24 06:26:16;;;;;;;6.05;4.05;;;;;;;27.33;48.91;99842.41;5093126;28;20507;-66
2023/07/24 06:28:45;;;;;;;6.32;4.30;;;;;;;27.32;49.00;99843.47;5093080;28;20054;-67
2023/07/24 06:31:13;;;;;;;5.63;3.97;;;;;;;27.33;49.47;99847.88;5093162;28;20048;-67
2023/07/24 06:33:41;;;;;;;6.13;4.50;;;;;;;27.33;49.11;99836.94;5092914;28;20493;-67
2023/07/24 06:36:10;;;;;;;6.65;4.28;;;;;;;27.32;49.58;99846.19;5092944;28;20047;-68
2023/07/24 06:38:42;;;;;;;5.88;3.83;;;;;;;27.32;49.68;99846.19;5092934;28;20381;-66
2023/07/24 06:41:10;;;;;;;6.15;4.60;;;;;;;27.33;49.35;99847.88;5092817;28;20040;-68
2023/07/24 06:43:39;;;;;;;5.40;4.25;;;;;;;27.32;49.67;99840.72;5091693;28;20048;-68
2023/07/24 06:46:07;;;;;;;5.95;4.20;;;;;;;27.34;49.38;99838.63;5092911;28;20066;-67
2023/07/24 06:48:36;;;;;;;6.45;4.53;;;;;;;27.34;50.03;99844.09;5092766;28;20139;-68
2023/07/24 06:51:04;;;;;;;5.95;4.30;;;;;;;27.34;49.93;99849.56;5092739;28;20084;-68
2023/07/24 06:53:33;;;;;;;6.35;4.40;;;;;;;27.34;50.04;99835.88;5092573;28;20098;-68
2023/07/24 06:56:02;;;;;;;5.88;3.95;;;;;;;27.34;49.31;99841.34;5093086;28;20075;-68
2023/07/24 06:58:30;;;;;;;7.10;4.20;;;;;;;27.35;49.50;99837.56;5092830;28;20054;-67
2023/07/24 07:00:59;;;;;;;5.60;4.03;;;;;;;27.35;49.59;99843.03;5092721;28;20129;-67
2023/07/24 07:03:27;;;;;;;5.18;4.15;;;;;;;27.35;49.68;99834.81;5092372;28;20377;-68
2023/07/24 07:05:59;;;;;;;6.55;4.70;;;;;;;27.36;49.89;99835.66;5092561;28;20043;-68
2023/07/24 07:08:28;;;;;;;;;;;;;;;27.36;49.83;99841.13;5091695;28;20048;-69
2023/07/24 07:10:57;;;;;;;6.75;4.20;;;;;;;27.35;50.23;99829.34;5092654;28;20222;-68
2023/07/24 07:13:26;;;;;;;7.30;4.10;;;;;;;27.36;50.01;99833.75;5092055;28;20044;-69
2023/07/24 07:15:54;;;;;;;7.95;4.22;;;;;;;27.36;49.64;99821.97;5092222;28;20044;-68
2023/07/24 07:18:23;;;;;;;5.55;3.80;;;;;;;27.37;50.12;99824.50;5090936;28;20048;-68
2023/07/24 07:20:53;;;;;;;7.93;4.32;;;;;;;27.36;49.67;99817.31;5092074;28;20118;-68
2023/07/24 07:23:22;;;;;;;6.70;4.55;;;;;;;27.37;49.73;99816.28;5092289;28;20105;-68
2023/07/24 07:25:52;;;;;;;6.68;4.20;;;;;;;27.38;49.74;99808.91;5092244;28;20072;-68
2023/07/24 07:28:21;;;;;;;6.13;4.47;;;;;;;27.39;50.21;99808.69;5092099;28;20051;-67
2023/07/24 07:30:50;;;;;;;7.07;4.22;;;;;;;27.38;50.07;99806.16;5091980;28;20047;-67
2023/07/24 07:33:21;;;;;;;6.03;4.30;;;;;;;27.37;50.27;99797.09;5091913;28;20139;-67
2023/07/24 07:35:49;;;;;;;5.88;4.40;;;;;;;27.39;49.82;99803.19;5091926;28;20044;-67
2023/07/24 07:38:17;;;;;;;7.22;4.13;;;;;;;27.39;49.69;99795.00;5090773;28;20044;-67
2023/07/24 07:40:48;;;;;;;7.10;4.40;;;;;;;27.38;50.19;99796.03;5091967;28;20048;-67
2023/07/24 07:43:16;;;;;;;5.97;4.38;;;;;;;27.41;50.50;99793.94;5091804;28;20048;-68
2023/07/24 07:45:47;;;;;;;6.45;4.63;;;;;;;27.40;50.13;99801.31;5091891;28;20044;-67
2023/07/24 07:48:17;;;;;;;6.28;4.10;;;;;;;27.42;49.97;99796.47;5091941;28;20119;-68
2023/07/24 07:50:45;;;;;;;5.93;4.07;;;;;;;27.43;50.25;99797.31;5091552;28;20457;-68
2023/07/24 07:53:14;;;;;;;6.85;4.35;;;;;;;27.43;50.26;99786.38;5091933;28;20062;-67
2023/07/24 07:55:42;;;;;;;6.22;4.45;;;;;;;27.44;50.20;99790.78;5091695;28;20044;-68
2023/07/24 07:58:10;;;;;;;6.38;4.30;;;;;;;27.44;50.30;99793.53;5091720;28;20044;-68
2023/07/24 08:00:39;;;;;;;6.55;4.57;;;;;;;27.45;50.03;99807.00;5091576;28;20044;-67
2023/07/24 08:03:08;;;;;;;6.88;4.68;;;;;;;27.45;50.75;99797.94;5091755;28;20071;-68
2023/07/24 08:05:38;;;;;;;6.38;4.55;;;;;;;27.45;50.39;99796.03;5091426;28;20116;-68
2023/07/24 08:08:06;;;;;;;6.70;4.60;;;;;;;27.46;50.30;99792.25;5091604;28;20413;-67
2023/07/24 08:10:38;;;;;;;7.82;4.65;;;;;;;27.48;50.28;99794.78;5091288;28;20071;-67
2023/07/24 08:13:07;;;;;;;6.55;4.70;;;;;;;27.49;51.11;99788.25;5091301;28;20048;-68
2023/07/24 08:15:36;;;;;;;6.72;4.65;;;;;;;27.49;50.76;99785.50;5091771;28;20131;-71
2023/07/24 08:18:05;;;;;;;7.90;4.85;;;;;;;27.49;51.19;99786.34;5090913;28;20040;-67
2023/07/24 08:20:36;;;;;;;6.13;4.57;;;;;;;27.50;50.93;99781.69;5095878;28;20073;-67
2023/07/24 08:23:05;;;;;;;6.50;4.68;;;;;;;27.51;51.06;99775.19;5098235;28;20044;-68
2023/07/24 08:25:33;;;;;;;6.45;4.18;;;;;;;27.51;50.99;99778.78;5097834;28;20048;-68
2023/07/24 08:28:02;;;;;;;5.95;4.50;;;;;;;27.52;50.87;99774.97;5098352;28;20447;-68
2023/07/24 08:30:34;;;;;;;6.55;4.57;;;;;;;27.53;50.95;99786.78;5097769;28;20051;-68
2023/07/24 08:33:03;;;;;;;6.75;4.75;;;;;;;27.54;50.70;99785.72;5098195;28;20493;-68
2023/07/24 08:35:32;;;;;;;7.38;4.93;;;;;;;27.55;50.52;99781.91;5098021;28;20044;-68
2023/07/24 08:38:05;;;;;;;6.40;4.63;;;;;;;27.56;51.13;99778.97;5098155;28;20418;-68
2023/07/24 08:40:33;;;;;;;7.90;4.85;;;;;;;27.56;50.92;99769.91;5097707;28;20138;-67
2023/07/24 08:43:01;;;;;;;7.93;4.68;;;;;;;27.57;50.76;99774.31;5098101;28;20109;-68
2023/07/24 08:45:31;;;;;;;7.55;4.90;;;;;;;27.58;50.97;99774.09;5098097;28;20040;-68
2023/07/24 08:48:00;;;;;;;7.72;4.25;;;;;;;27.59;50.78;99769.47;5098132;28;20054;-68
2023/07/24 08:50:30;;;;;;;8.60;4.70;;;;;;;27.60;51.01;99772.00;5097922;28;20595;-69
2023/07/24 08:52:58;;;;;;;7.50;4.82;;;;;;;27.61;50.91;99761.91;5097936;28;20515;-69
2023/07/24 08:55:29;;;;;;;6.53;4.40;;;;;;;27.63;50.72;99765.25;5098018;28;20093;-68
2023/07/24 08:57:57;;;;;;;7.65;4.82;;;;;;;27.64;51.04;99761.47;5097950;28;20094;-69
2023/07/24 09:00:29;;;;;;;7.18;4.88;;;;;;;27.64;50.88;99756.81;5097784;28;20044;-68
2023/07/24 09:02:57;;;;;;;6.47;4.68;;;;;;;27.65;50.75;99750.31;5097679;28;20420;-68
2023/07/24 09:05:25;;;;;;;7.57;4.88;;;;;;;27.66;50.91;99762.09;5097634;28;20044;-68
2023/07/24 09:07:54;;;;;;;7.13;4.88;;;;;;;27.67;51.21;99750.94;5097852;28;20645;-68
2023/07/24 09:10:25;;;;;;;7.88;4.65;;;;;;;27.68;50.96;99746.28;5097488;28;20101;-69
2023/07/24 09:12:56;;;;;;;7.15;4.97;;;;;;;27.69;50.72;99745.22;5097623;28;20051;-68
2023/07/24 09:15:25;;;;;;;8.45;4.75;;;;;;;27.70;51.07;99735.97;5098014;28;20117;-68
2023/07/24 09:17:54;;;;;;;7.70;4.80;;;;;;;27.71;51.01;99743.13;5097641;28;20083;-68
2023/07/24 09:20:26;;;;;;;8.13;5.13;;;;;;;27.73;50.97;99748.41;5097716;28;20043;-69
2023/07/24 09:22:57;;;;;;;7.45;4.88;;;;;;;27.73;50.96;99738.28;5097821;28;20044;-68
2023/07/24 09:25:44;;;;;;;6.90;4.90;;;;;;;27.73;50.85;99727.31;5097618;28;20123;-68
2023/07/24 09:28:15;;;;;;;7.70;5.43;;;;;;;27.74;51.12;99734.47;5097504;28;20044;-68
2023/07/24 09:30:53;;;;;;;7.28;5.05;;;;;;;27.76;50.97;99732.34;5097155;28;20063;-68
2023/07/24 09:33:22;;;;;;;7.85;5.28;;;;;;;27.77;50.83;99734.03;5094195;28;20467;-68
2023/07/24 09:35:59;;;;;;;8.27;5.10;;;;;;;27.78;50.64;99723.91;5094324;28;20055;-68
2023/07/24 09:38:28;;;;;;;7.13;4.90;;;;;;;27.79;50.83;99722.84;5094262;28;20047;-68
2023/07/24 09:40:57;;;;;;;8.27;5.07;;;;;;;27.80;50.71;99728.16;5093924;28;20048;-68
2023/07/24 09:43:29;;;;;;;8.05;5.40;;;;;;;27.82;50.88;99714.22;5092677;28;20492;-68
2023/07/24 09:46:09;;;;;;;8.53;5.47;;;;;;;27.83;51.07;99715.91;5094131;28;20079;-68
2023/07/24 09:48:38;;;;;;;7.30;5.20;;;;;;;27.84;50.45;99706.63;5094034;28;20040;-68
2023/07/24 09:51:30;;;;;;;8.70;5.45;;;;;;;27.83;50.87;99696.72;5093620;28;20074;-68
2023/07/24 09:54:07;;;;;;;7.80;5.40;;;;;;;27.83;50.71;99694.81;5093904;28;20101;-68
2023/07/24 09:56:37;;;;;;;8.05;5.03;;;;;;;27.84;50.58;99685.53;5094055;28;20350;-68
2023/07/24 09:59:23;;;;;;;7.85;5.55;;;;;;;27.86;50.38;99694.38;5093838;28;20051;-68
2023/07/24 10:01:52;;;;;;;7.50;4.70;;;;;;;27.88;50.63;99684.03;5093706;28;20209;-68
2023/07/24 10:04:21;;;;;;;8.25;5.35;;;;;;;27.88;50.07;99681.28;5093983;28;20097;-68
2023/07/24 10:06:50;;;;;;;6.82;4.95;;;;;;;27.90;50.14;99679.19;5093969;28;20051;-68
2023/07/24 10:09:22;;;;;;;7.65;4.95;;;;;;;27.93;50.08;99678.75;5093375;28;20056;-69
2023/07/24 10:11:50;;;;;;;;;;;;;;;27.94;50.51;99674.94;5093979;28;20056;-69
2023/07/24 10:14:19;;;;;;;8.15;5.05;;;;;;;27.97;50.17;99672.81;5093311;28;20304;-69
2023/07/24 10:16:49;;;;;;;8.65;5.68;;;;;;;27.98;49.88;99674.50;5093671;28;20048;-68
2023/07/24 10:19:17;;;;;;;9.07;5.43;;;;;;;28.01;50.10;99679.56;5093605;28;20554;-68
2023/07/24 10:21:48;;;;;;;8.20;5.55;;;;;;;28.03;50.02;99663.72;5093464;28;20119;-68
2023/07/24 10:24:16;;;;;;;8.85;5.75;;;;;;;28.03;49.74;99660.97;5093733;28;20052;-68
2023/07/24 10:27:04;;;;;;;8.07;5.75;;;;;;;28.03;49.81;99660.97;5093535;28;20040;-68
2023/07/24 10:29:36;;;;;;;8.88;6.05;;;;;;;28.05;50.06;99653.38;5093238;28;20056;-68
2023/07/24 10:32:17;;;;;;;;;;;;;;;28.06;50.32;99644.94;5093519;28;20052;-68
2023/07/24 10:34:45;;;;;;;8.68;5.93;;;;;;;28.08;50.13;99647.44;5093160;28;19927;-68
2023/07/24 10:37:13;;;;;;;9.75;6.60;;;;;;;28.09;49.69;99643.66;5093202;28;20044;-69
2023/07/24 10:39:42;;;;;;;9.80;6.57;;;;;;;28.10;50.11;99632.47;5093379;28;20044;-68
2023/07/24 10:42:11;;;;;;;9.10;6.18;;;;;;;28.13;49.99;99631.19;5093565;28;20048;-68
2023/07/24 10:44:40;;;;;;;8.88;5.80;;;;;;;28.14;49.70;99630.13;5093083;28;20088;-68
2023/07/24 10:47:09;;;;;;;10.80;6.60;;;;;;;28.16;49.61;99634.31;5092814;28;20470;-68
2023/07/24 10:49:37;;;;;;;8.93;6.25;;;;;;;28.19;49.56;99631.16;5092708;28;20081;-68
2023/07/24 10:52:06;;;;;;;9.10;6.28;;;;;;;28.19;49.42;99622.94;5093064;28;20459;-68
2023/07/24 10:54:35;;;;;;;10.25;7.05;;;;;;;28.22;49.75;99621.63;5093046;28;20067;-68
2023/07/24 10:57:03;;;;;;;9.55;6.22;;;;;;;28.24;49.29;99622.25;5092831;28;20048;-68
2023/07/24 10:59:39;;;;;;;9.93;6.40;;;;;;;28.26;49.27;99622.84;5092849;28;20122;-68
2023/07/24 11:02:10;;;;;;;9.93;6.47;;;;;;;28.27;49.29;99621.78;5092588;28;20044;-68
2023/07/24 11:04:38;;;;;;;10.15;7.13;;;;;;;28.30;49.32;99606.84;5092612;28;20050;-68
2023/07/24 11:07:07;;;;;;;12.35;6.93;;;;;;;28.32;48.92;99599.22;5092700;28;20135;-68
2023/07/24 11:09:37;;;;;;;11.15;6.95;;;;;;;28.34;48.65;99602.59;5092471;28;20048;-67
2023/07/24 11:12:14;;;;;;;10.68;6.80;;;;;;;28.35;48.97;99585.91;5092439;28;20051;-69
2023/07/24 11:14:55;;;;;;;13.77;6.85;;;;;;;28.39;48.74;99592.63;5092380;28;20048;-69
2023/07/24 11:17:35;;;;;;;10.75;6.68;;;;;;;28.41;48.41;99576.78;5092382;28;20079;-69
2023/07/24 11:20:09;;;;;;;9.65;6.70;;;;;;;28.44;48.41;99576.34;5092671;28;20044;-69
2023/07/24 11:22:39;;;;;;;9.32;6.47;;;;;;;28.47;48.22;99575.03;5092310;28;20070;-69
2023/07/24 11:25:09;;;;;;;10.85;7.18;;;;;;;28.47;48.52;99578.66;5092197;28;20442;-68
2023/07/24 11:27:42;;;;;;;10.70;6.97;;;;;;;28.48;48.28;99574.84;5091996;28;20094;-69
2023/07/24 11:30:12;;;;;;;11.35;6.78;;;;;;;28.50;48.70;99563.63;5092405;28;20044;-69
2023/07/24 11:32:43;;;;;;;9.68;6.53;;;;;;;28.52;48.59;99561.50;5092184;28;20412;-68
2023/07/24 11:35:11;;;;;;;10.75;6.75;;;;;;;28.55;48.01;99558.28;5092082;28;20142;-69
2023/07/24 11:37:41;;;;;;;10.00;6.88;;;;;;;28.57;48.08;99552.56;5092257;28;20044;-69
2023/07/24 11:40:13;;;;;;;11.60;6.57;;;;;;;28.59;47.84;99544.97;5091843;28;20044;-69
2023/07/24 11:42:44;;;;;;;9.87;6.57;;;;;;;28.62;48.04;99533.53;5092997;28;20044;-69
2023/07/24 11:45:12;;;;;;;9.77;6.55;;;;;;;28.65;48.31;99522.09;5092752;28;20580;-69